Ocean Bluff, Massachusetts
Current Conditions -  °F | °C
As of 12:18 PM on Thursday 23 Oct 2014 (Local Time) from KPYM Reporting Station
Overcast Overcast  
Wind Chill: 60°   Ceiling: 600
Heat Index: 60°   Visibility: 9mi
Dew Point: 58°   Wind: 10mph
Humidity: 93%   Direction: 10°N
Pressure: 29.56"   Gusts: NA
Location:  42.1°N, 70.65°W
Report Text: KPYM 231618Z AUTO 01009KT 9SM OVC006 16/14 A2956 RMK AO2 CIG 004V009 T01560144
Loading
Personal Weather Stations






























Interactive Weather Map
Tropical Storm Tracking
New forecast layout! Learn more

10-Day Weather Forecast

Advertisements
Track Severe Weather on mobile